Time;durP1;ratioP1;P1;durP2;ratioP2;P2;SDS_P1;SDS_P2;PMS_P1;PMS_P2;Temp;Humidity;BMP_temperature;BMP_pressure;BME280_temperature;BME280_humidity;BME280_pressure;Samples;Min_cycle;Max_cycle;Signal;HPM_P1;HPM_P2
2022/01/21 00:01:28;;;;;;;7.45;1.67;;;14.60;64.20;;;;;;4126914;28;20958;-71
2022/01/21 00:03:51;;;;;;;10.50;2.22;;;14.60;64.10;;;;;;4126154;28;20454;-71
2022/01/21 00:06:14;;;;;;;8.23;1.52;;;14.60;64.20;;;;;;4140584;28;20111;-74
2022/01/21 00:08:39;;;;;;;4.85;1.90;;;14.50;64.20;;;;;;4143204;28;20088;-74
2022/01/21 00:11:05;;;;;;;8.13;1.85;;;14.50;64.20;;;;;;4142407;28;20164;-72
2022/01/21 00:13:34;;;;;;;6.80;1.75;;;14.50;64.40;;;;;;4142879;28;20120;-73
2022/01/21 00:15:57;;;;;;;4.75;1.75;;;14.50;64.60;;;;;;4131674;28;20442;-74
2022/01/21 00:18:20;;;;;;;13.93;1.98;;;14.50;64.60;;;;;;4126471;28;20058;-74
2022/01/21 00:31:27;;;;;;;12.13;2.13;;;14.60;64.60;;;;;;4138386;28;20104;-72
2022/01/21 00:33:50;;;;;;;11.55;1.92;;;14.70;64.10;;;;;;4126345;28;20104;-72
2022/01/21 00:36:13;;;;;;;5.47;2.28;;;14.80;64.50;;;;;;4140745;28;20107;-72
2022/01/21 00:38:40;;;;;;;5.50;2.05;;;14.90;63.90;;;;;;4140986;28;20046;-70
2022/01/21 00:41:06;;;;;;;6.45;1.85;;;14.90;63.50;;;;;;4126469;28;20078;-70
2022/01/21 00:43:32;;;;;;;7.93;1.90;;;15.00;60.60;;;;;;4124436;28;20058;-70
2022/01/21 00:45:55;;;;;;;7.40;1.83;;;15.00;61.90;;;;;;4138549;28;20484;-70
2022/01/21 00:48:18;;;;;;;4.55;1.52;;;15.00;62.20;;;;;;4142013;28;20050;-70
2022/01/21 00:50:41;;;;;;;6.80;1.60;;;15.00;61.80;;;;;;4124236;28;20085;-70
2022/01/21 00:53:04;;;;;;;10.50;1.95;;;15.00;62.30;;;;;;4126195;28;20046;-71
2022/01/21 00:55:27;;;;;;;2.97;1.65;;;15.00;62.60;;;;;;4135719;28;20049;-70
2022/01/21 00:57:51;;;;;;;6.65;1.67;;;14.90;61.20;;;;;;4140039;28;20077;-70
2022/01/21 01:00:16;;;;;;;9.90;1.77;;;14.90;62.10;;;;;;4127752;28;20596;-70
2022/01/21 01:02:39;;;;;;;4.15;1.42;;;14.90;61.80;;;;;;4125764;28;20061;-70
2022/01/21 01:05:03;;;;;;;6.97;1.13;;;14.80;62.50;;;;;;4134289;28;20041;-70
2022/01/21 01:07:26;;;;;;;5.18;1.58;;;14.80;63.60;;;;;;4140516;28;20536;-70
2022/01/21 01:09:53;;;;;;;10.90;1.77;;;14.80;63.50;;;;;;4140119;28;20501;-70
2022/01/21 01:12:24;;;;;;;7.35;1.40;;;14.80;63.60;;;;;;4140688;28;20136;-70
2022/01/21 01:20:39;;;;;;;3.70;1.67;;;14.80;61.00;;;;;;4089569;28;20110;-70
2022/01/21 01:23:08;;;;;;;7.40;1.58;;;14.80;58.80;;;;;;4115022;28;20085;-70
2022/01/21 01:28:11;;;;;;;3.78;1.30;;;14.70;59.60;;;;;;4132116;28;20050;-70
2022/01/21 01:30:36;;;;;;;7.05;1.40;;;14.70;61.20;;;;;;4140721;28;20049;-70
2022/01/21 01:33:02;;;;;;;6.10;1.30;;;14.80;62.10;;;;;;4146765;28;20050;-70
2022/01/21 01:35:27;;;;;;;6.78;1.40;;;14.90;62.50;;;;;;4154817;28;20049;-70
2022/01/21 01:38:16;;;;;;;6.32;1.25;;;14.90;62.50;;;;;;4133301;28;20573;-70
2022/01/21 01:40:43;;;;;;;4.57;1.50;;;15.00;62.40;;;;;;4123689;28;20086;-70
2022/01/21 01:51:12;;;;;;;4.45;1.35;;;15.20;62.30;;;;;;4141537;28;20112;-70
2022/01/21 01:53:38;;;;;;;5.10;0.93;;;15.20;62.40;;;;;;4126858;28;20120;-71
2022/01/21 01:56:03;;;;;;;4.07;1.05;;;15.20;62.30;;;;;;4125592;28;20169;-71
2022/01/21 01:58:26;;;;;;;4.50;0.98;;;15.20;63.30;;;;;;4132484;28;20506;-70
2022/01/21 02:00:49;;;;;;;2.08;0.93;;;15.20;62.30;;;;;;4140344;28;20073;-69
2022/01/21 02:03:13;;;;;;;5.28;0.88;;;15.30;62.50;;;;;;4134781;28;20042;-69
2022/01/21 02:05:38;;;;;;;4.70;1.20;;;15.30;62.60;;;;;;4125583;28;20042;-69
2022/01/21 02:08:01;;;;;;;4.18;1.17;;;15.30;62.40;;;;;;4126023;28;20058;-69
2022/01/21 02:10:24;;;;;;;5.15;1.10;;;15.20;61.80;;;;;;4125932;28;20073;-69
2022/01/21 02:12:48;;;;;;;4.72;1.30;;;15.20;62.20;;;;;;4132186;28;20049;-69
2022/01/21 02:15:12;;;;;;;5.80;1.38;;;15.20;61.80;;;;;;4144333;28;20104;-69
2022/01/21 02:22:57;;;;;;;3.33;1.10;;;15.00;63.20;;;;;;4136057;28;20173;-70
2022/01/21 02:25:21;;;;;;;3.65;1.00;;;15.10;63.30;;;;;;4143418;28;20080;-70
2022/01/21 02:27:46;;;;;;;3.70;1.00;;;15.10;63.00;;;;;;4140557;28;20108;-70
2022/01/21 02:30:18;;;;;;;3.20;1.10;;;15.20;62.80;;;;;;4127913;28;20050;-71
2022/01/21 02:32:43;;;;;;;2.38;0.95;;;15.20;62.60;;;;;;4133262;28;20136;-70
2022/01/21 02:35:07;;;;;;;2.90;1.15;;;15.20;62.60;;;;;;4142537;28;20076;-70
2022/01/21 02:37:30;;;;;;;3.13;0.80;;;15.20;62.70;;;;;;4143438;28;20042;-70
2022/01/21 02:39:55;;;;;;;3.25;0.90;;;15.30;62.80;;;;;;4127963;28;20498;-69
2022/01/21 02:42:18;;;;;;;4.95;1.60;;;15.30;62.70;;;;;;4129535;28;20050;-69
2022/01/21 02:44:41;;;;;;;6.15;1.50;;;15.30;62.60;;;;;;4144140;28;20058;-69
2022/01/21 02:47:05;;;;;;;1.90;1.00;;;15.30;62.70;;;;;;4155586;28;20148;-70
2022/01/21 02:49:34;;;;;;;3.17;0.70;;;15.30;62.80;;;;;;4126322;28;20101;-70
2022/01/21 02:52:00;;;;;;;2.17;0.90;;;15.30;62.90;;;;;;4126805;28;20101;-69
2022/01/21 02:54:24;;;;;;;3.17;0.80;;;15.40;62.70;;;;;;4142782;28;20497;-70
2022/01/21 02:56:50;;;;;;;2.90;1.02;;;15.40;62.50;;;;;;4140411;28;20109;-69
2022/01/21 02:59:13;;;;;;;3.88;1.00;;;15.40;62.30;;;;;;4125726;28;20109;-69
2022/01/21 03:01:38;;;;;;;2.95;0.60;;;15.40;62.30;;;;;;4126266;28;20046;-69
2022/01/21 03:04:01;;;;;;;3.40;0.90;;;15.40;62.50;;;;;;4126113;28;20082;-70
2022/01/21 03:06:25;;;;;;;4.13;0.95;;;15.40;62.60;;;;;;4126373;28;20077;-70
2022/01/21 03:08:52;;;;;;;3.05;0.90;;;15.50;62.70;;;;;;4140955;28;20050;-71
2022/01/21 03:11:15;;;;;;;2.50;0.88;;;15.50;62.50;;;;;;4142423;28;20045;-69
2022/01/21 03:13:42;;;;;;;3.08;0.93;;;15.50;63.20;;;;;;4128274;28;20117;-69
2022/01/21 03:16:05;;;;;;;6.18;1.80;;;15.50;62.20;;;;;;4127185;28;20053;-70
2022/01/21 03:18:27;;;;;;;5.82;1.30;;;15.50;62.00;;;;;;4141059;28;20103;-70
2022/01/21 03:20:51;;;;;;;3.00;1.13;;;15.50;61.90;;;;;;4142250;28;20049;-69
2022/01/21 03:23:16;;;;;;;6.20;1.20;;;15.40;60.70;;;;;;4146491;28;20045;-69
2022/01/21 03:25:42;;;;;;;3.13;1.02;;;15.40;59.10;;;;;;4154636;28;20049;-69
2022/01/21 03:28:05;;;;;;;5.75;1.75;;;15.30;60.20;;;;;;4146582;28;20104;-69
2022/01/21 03:30:31;;;;;;;5.97;1.00;;;15.30;61.60;;;;;;4144704;28;20054;-69
2022/01/21 03:33:01;;;;;;;7.53;1.23;;;15.30;61.70;;;;;;4132995;28;20113;-70
2022/01/21 03:35:24;;;;;;;4.85;1.00;;;15.30;61.80;;;;;;4125846;28;20365;-70
2022/01/21 03:37:47;;;;;;;4.93;1.27;;;15.20;61.80;;;;;;4135179;28;20116;-70
2022/01/21 03:40:11;;;;;;;6.85;1.25;;;15.20;62.10;;;;;;4142073;28;20046;-69
2022/01/21 03:42:34;;;;;;;5.00;1.05;;;15.20;62.30;;;;;;4136451;28;20058;-69
2022/01/21 03:44:57;;;;;;;6.18;1.10;;;15.30;62.40;;;;;;4125887;28;20083;-69
2022/01/21 03:47:22;;;;;;;3.85;1.27;;;15.30;62.40;;;;;;4129934;28;20111;-69
2022/01/21 03:49:53;;;;;;;6.22;1.20;;;15.30;62.20;;;;;;4141771;28;20049;-69
2022/01/21 03:52:16;;;;;;;5.38;1.30;;;15.30;62.40;;;;;;4138502;28;20050;-69
2022/01/21 03:54:39;;;;;;;4.10;1.20;;;15.30;62.60;;;;;;4125624;28;20472;-70
2022/01/21 03:57:02;;;;;;;4.65;0.98;;;15.40;62.60;;;;;;4140013;28;20042;-70
2022/01/21 03:59:25;;;;;;;4.85;1.00;;;15.50;62.30;;;;;;4141414;28;20042;-68
2022/01/21 04:01:47;;;;;;;2.63;0.70;;;15.50;61.90;;;;;;4140190;28;20049;-69
2022/01/21 04:04:12;;;;;;;4.65;1.00;;;15.60;61.80;;;;;;4141413;28;20053;-69
2022/01/21 04:06:35;;;;;;;4.20;1.20;;;15.60;61.80;;;;;;4145669;28;20054;-68
2022/01/21 04:08:59;;;;;;;4.10;0.90;;;15.60;61.90;;;;;;4141399;28;20188;-70
2022/01/21 04:11:22;;;;;;;4.40;0.90;;;15.60;61.90;;;;;;4142431;28;20054;-69
2022/01/21 04:13:45;;;;;;;5.45;0.95;;;15.60;61.80;;;;;;4125048;28;20478;-70
2022/01/21 04:16:15;;;;;;;2.80;1.17;;;15.60;61.90;;;;;;4134384;28;20123;-70
2022/01/21 04:18:39;;;;;;;4.20;1.02;;;15.50;62.20;;;;;;4141331;28;20445;-70
2022/01/21 04:21:07;;;;;;;3.85;0.98;;;15.50;62.40;;;;;;4141153;28;20054;-71
2022/01/21 04:23:31;;;;;;;3.17;1.02;;;15.40;62.60;;;;;;4125008;28;20097;-71
2022/01/21 04:25:54;;;;;;;3.22;1.27;;;15.40;62.90;;;;;;4140910;28;20460;-70
2022/01/21 04:28:18;;;;;;;3.03;0.98;;;15.40;62.90;;;;;;4141031;28;20096;-70
2022/01/21 04:30:43;;;;;;;2.65;0.82;;;15.50;62.80;;;;;;4154918;28;20053;-72
2022/01/21 04:33:07;;;;;;;4.18;1.20;;;15.50;62.70;;;;;;4142019;28;20049;-70
2022/01/21 04:35:30;;;;;;;5.47;0.93;;;15.50;62.60;;;;;;4126305;28;20486;-71
2022/01/21 04:37:57;;;;;;;2.15;0.88;;;15.50;63.60;;;;;;4124189;28;20050;-70
2022/01/21 04:40:23;;;;;;;3.90;1.13;;;15.50;62.60;;;;;;4124141;28;20584;-71
2022/01/21 04:48:14;;;;;;;1.92;0.60;;;15.50;62.80;;;;;;4125512;28;20046;-71
2022/01/21 04:50:40;;;;;;;3.15;1.00;;;15.50;62.70;;;;;;4124448;28;20092;-70
2022/01/21 04:53:06;;;;;;;3.47;1.10;;;15.50;62.70;;;;;;4140464;28;20050;-71
2022/01/21 04:55:34;;;;;;;3.63;0.80;;;15.50;62.70;;;;;;4124416;28;20137;-71
2022/01/21 04:57:57;;;;;;;5.70;0.75;;;15.50;62.70;;;;;;4124576;28;20375;-69
2022/01/21 05:00:20;;;;;;;4.75;0.88;;;15.50;62.70;;;;;;4132003;28;20490;-70
2022/01/21 05:02:43;;;;;;;5.18;0.95;;;15.50;62.80;;;;;;4140606;28;20504;-70
2022/01/21 05:05:09;;;;;;;4.43;0.75;;;15.40;62.90;;;;;;4125139;28;20050;-70
2022/01/21 05:07:36;;;;;;;5.00;1.15;;;15.40;63.10;;;;;;4126053;28;20512;-70
2022/01/21 05:10:02;;;;;;;5.53;1.10;;;15.40;63.20;;;;;;4128793;28;20172;-70
2022/01/21 05:12:27;;;;;;;5.25;1.10;;;15.30;63.30;;;;;;4140807;28;20058;-70
2022/01/21 05:15:05;;;;;;;2.08;1.02;;;15.30;63.70;;;;;;4129790;28;20101;-70
2022/01/21 05:17:29;;;;;;;5.15;1.08;;;15.30;63.90;;;;;;4123926;28;20113;-70
2022/01/21 05:19:53;;;;;;;3.95;0.95;;;15.30;63.80;;;;;;4126249;28;20155;-71
2022/01/21 05:22:34;;;;;;;4.80;1.10;;;15.40;63.60;;;;;;4125018;28;20434;-71
2022/01/21 05:24:57;;;;;;;5.82;1.00;;;15.40;63.50;;;;;;4136762;28;20401;-70
2022/01/21 05:27:21;;;;;;;4.78;1.40;;;15.40;63.40;;;;;;4140553;28;20814;-71
2022/01/21 05:29:46;;;;;;;6.50;1.27;;;15.50;63.20;;;;;;4138282;28;20168;-70
2022/01/21 05:32:22;;;;;;;4.18;1.27;;;15.50;62.90;;;;;;4123502;28;20104;-70
2022/01/21 05:34:59;;;;;;;5.95;1.70;;;15.60;63.00;;;;;;4136907;28;20045;-70
2022/01/21 05:37:45;;;;;;;4.18;1.65;;;15.60;62.80;;;;;;4127215;28;20053;-71
2022/01/21 05:40:17;;;;;;;6.07;1.83;;;15.70;62.60;;;;;;4134946;28;20050;-71
2022/01/21 05:43:16;;;;;;;6.20;1.55;;;15.70;62.30;;;;;;4122167;28;20530;-70
2022/01/21 05:49:15;;;;;;;7.60;1.98;;;15.80;62.20;;;;;;4085982;28;20091;-71
2022/01/21 05:52:03;;;;;;;9.93;1.63;;;15.70;62.40;;;;;;4109531;28;20281;-70
2022/01/21 05:54:46;;;;;;;8.80;1.60;;;15.60;62.60;;;;;;4139487;28;20107;-71
2022/01/21 05:57:30;;;;;;;4.32;1.60;;;15.50;62.90;;;;;;4124907;28;20418;-70
2022/01/21 05:59:54;;;;;;;5.95;1.77;;;15.50;63.30;;;;;;4130586;28;20100;-70
2022/01/21 06:02:17;;;;;;;7.93;1.45;;;15.50;63.40;;;;;;4144931;28;20061;-70
2022/01/21 06:04:43;;;;;;;8.50;1.58;;;15.50;63.20;;;;;;4144583;28;20058;-70
2022/01/21 06:07:07;;;;;;;8.07;2.38;;;15.60;63.10;;;;;;4128539;28;20050;-70
2022/01/21 06:09:30;;;;;;;8.32;2.08;;;15.70;62.90;;;;;;4128260;28;20054;-70
2022/01/21 06:11:53;;;;;;;6.53;2.10;;;15.70;62.50;;;;;;4126601;28;20054;-70
2022/01/21 06:14:16;;;;;;;9.52;1.70;;;15.80;62.20;;;;;;4139119;28;20042;-69
2022/01/21 06:16:40;;;;;;;10.60;2.00;;;15.80;62.10;;;;;;4157298;28;20049;-69
2022/01/21 06:19:03;;;;;;;9.15;2.05;;;15.80;62.00;;;;;;4144657;28;20503;-69
2022/01/21 06:21:27;;;;;;;10.68;2.35;;;15.80;62.20;;;;;;4128185;28;20062;-70
2022/01/21 06:23:50;;;;;;;10.05;2.03;;;15.80;62.20;;;;;;4134894;28;20096;-70
2022/01/21 06:26:13;;;;;;;10.68;1.70;;;15.80;62.40;;;;;;4144294;28;20108;-70
2022/01/21 06:28:36;;;;;;;9.77;1.80;;;15.90;62.20;;;;;;4156834;28;20497;-71
2022/01/21 06:30:59;;;;;;;7.72;1.80;;;16.00;61.80;;;;;;4134207;28;20544;-72
2022/01/21 06:33:24;;;;;;;8.50;1.50;;;16.10;61.30;;;;;;4140071;28;20042;-72
2022/01/21 06:35:47;;;;;;;6.00;1.52;;;16.20;61.20;;;;;;4126815;28;20157;-71
2022/01/21 06:38:10;;;;;;;5.22;1.30;;;16.20;61.10;;;;;;4127700;28;20438;-70
2022/01/21 06:40:33;;;;;;;5.85;1.27;;;16.10;61.20;;;;;;4139093;28;20112;-71
2022/01/21 06:43:02;;;;;;;5.78;1.77;;;16.10;61.20;;;;;;4141421;28;20057;-71
2022/01/21 06:45:25;;;;;;;8.50;2.00;;;16.10;61.40;;;;;;4127416;28;20046;-71
2022/01/21 06:47:48;;;;;;;6.18;1.40;;;16.00;61.40;;;;;;4127682;28;20058;-71
2022/01/21 06:50:13;;;;;;;7.35;1.35;;;16.00;61.60;;;;;;4135400;28;20096;-69
2022/01/21 06:52:36;;;;;;;6.95;1.77;;;15.90;61.80;;;;;;4143860;28;20053;-70
2022/01/21 06:55:00;;;;;;;8.25;1.98;;;15.90;61.90;;;;;;4143524;28;20082;-70
2022/01/21 06:57:23;;;;;;;5.93;1.40;;;15.80;62.20;;;;;;4143507;28;20042;-72
2022/01/21 06:59:47;;;;;;;6.40;1.70;;;15.80;62.40;;;;;;4142354;28;20096;-71
2022/01/21 07:02:10;;;;;;;9.57;1.25;;;15.80;62.30;;;;;;4144192;28;20053;-65
2022/01/21 07:04:34;;;;;;;5.20;1.67;;;15.80;62.60;;;;;;4128362;28;20059;-70
2022/01/21 07:06:59;;;;;;;6.18;1.58;;;15.80;62.90;;;;;;4140046;28;20054;-70
2022/01/21 07:09:23;;;;;;;8.25;1.35;;;15.90;63.10;;;;;;4139274;28;20035;-70
2022/01/21 07:11:45;;;;;;;7.10;1.58;;;15.90;62.90;;;;;;4127503;28;20429;-72
2022/01/21 07:14:09;;;;;;;5.90;1.42;;;16.00;62.70;;;;;;4141530;28;20498;-70
2022/01/21 07:16:31;;;;;;;5.00;1.45;;;16.00;62.50;;;;;;4139530;28;20054;-69
2022/01/21 07:18:54;;;;;;;5.50;1.45;;;16.00;62.40;;;;;;4137201;28;20049;-70
2022/01/21 07:21:17;;;;;;;8.70;1.42;;;16.00;62.40;;;;;;4143621;28;20049;-70
2022/01/21 07:23:42;;;;;;;10.02;2.13;;;15.90;62.40;;;;;;4142297;28;20095;-70
2022/01/21 07:26:05;;;;;;;7.60;1.77;;;15.90;62.60;;;;;;4126835;28;20112;-67
2022/01/21 07:28:28;;;;;;;7.03;1.50;;;15.80;62.80;;;;;;4127306;28;20105;-69
2022/01/21 07:30:52;;;;;;;8.20;1.83;;;15.70;62.90;;;;;;4129986;28;20038;-69
2022/01/21 07:33:15;;;;;;;6.97;1.90;;;15.70;63.20;;;;;;4137403;28;20046;-70
2022/01/21 07:35:38;;;;;;;5.25;1.73;;;15.60;64.30;;;;;;4143462;28;20103;-70
2022/01/21 07:38:05;;;;;;;6.30;1.70;;;15.50;63.80;;;;;;4143382;28;20100;-70
2022/01/21 07:40:29;;;;;;;8.35;1.70;;;15.50;64.30;;;;;;4140942;28;20100;-70
2022/01/21 07:42:52;;;;;;;3.70;1.85;;;15.50;64.30;;;;;;4143223;28;20457;-70
2022/01/21 07:45:15;;;;;;;7.75;1.80;;;15.60;64.20;;;;;;4143097;28;20100;-70
2022/01/21 07:47:42;;;;;;;7.05;2.08;;;15.60;63.90;;;;;;4143041;28;20429;-69
2022/01/21 07:50:07;;;;;;;8.98;1.70;;;15.60;63.70;;;;;;4127301;28;20485;-70
2022/01/21 07:52:30;;;;;;;8.77;1.80;;;15.60;63.70;;;;;;4125475;28;20047;-70
2022/01/21 07:54:54;;;;;;;7.78;1.75;;;15.60;63.70;;;;;;4129225;28;20046;-70
2022/01/21 07:57:18;;;;;;;7.68;1.75;;;15.60;63.70;;;;;;4134579;28;20101;-70
2022/01/21 07:59:41;;;;;;;9.40;2.45;;;15.60;63.70;;;;;;4136322;28;20054;-70
2022/01/21 08:02:06;;;;;;;13.00;2.28;;;15.60;63.80;;;;;;4142935;28;20076;-70
2022/01/21 08:04:29;;;;;;;6.25;1.58;;;15.60;63.90;;;;;;4122176;28;20038;-70
2022/01/21 08:06:53;;;;;;;7.72;1.67;;;15.50;64.00;;;;;;4126837;28;20050;-70
2022/01/21 08:09:16;;;;;;;8.18;1.92;;;15.40;65.00;;;;;;4127085;28;20433;-70
2022/01/21 08:11:39;;;;;;;6.35;1.60;;;15.40;64.60;;;;;;4127697;28;20058;-70
2022/01/21 08:14:03;;;;;;;12.27;2.20;;;15.40;64.70;;;;;;4140123;28;20092;-70
2022/01/21 08:16:26;;;;;;;15.23;2.28;;;15.50;64.50;;;;;;4142511;28;20069;-70
2022/01/21 08:18:49;;;;;;;10.52;1.88;;;15.60;64.20;;;;;;4139285;28;20041;-70
2022/01/21 08:21:18;;;;;;;9.25;1.75;;;15.70;64.70;;;;;;4133699;28;20391;-70
2022/01/21 08:23:41;;;;;;;9.50;2.17;;;15.70;63.70;;;;;;4139231;28;20103;-69
2022/01/21 08:26:04;;;;;;;9.30;2.28;;;15.70;63.50;;;;;;4142101;28;20094;-70
2022/01/21 08:28:27;;;;;;;17.48;2.92;;;15.70;63.40;;;;;;4139181;28;20112;-70
2022/01/21 08:30:52;;;;;;;10.27;2.25;;;15.70;63.60;;;;;;4141821;28;20055;-70
2022/01/21 08:33:15;;;;;;;10.68;2.42;;;15.70;63.70;;;;;;4141983;28;20497;-70
2022/01/21 08:35:40;;;;;;;12.25;2.20;;;15.60;63.70;;;;;;4141940;28;20058;-71
2022/01/21 08:38:04;;;;;;;9.43;2.72;;;15.60;64.00;;;;;;4139822;28;20053;-71
2022/01/21 08:40:27;;;;;;;7.38;2.40;;;15.60;64.10;;;;;;4130814;28;20391;-68
2022/01/21 08:42:50;;;;;;;15.88;2.20;;;15.60;64.00;;;;;;4139959;28;20457;-72
2022/01/21 08:45:14;;;;;;;13.48;2.67;;;15.70;64.00;;;;;;4125856;28;20453;-73
2022/01/21 08:47:44;;;;;;;8.60;2.05;;;15.70;64.30;;;;;;4136987;28;20599;-72
2022/01/21 08:50:59;;;;;;;;;;;;;;;;;;;;;
2022/01/21 08:54:04;;;;;;;10.05;2.13;;;15.70;64.90;;;;;;4124634;28;20518;-64
2022/01/21 08:57:20;;;;;;;17.55;2.75;;;15.60;65.90;;;;;;4125037;28;20081;-66
2022/01/21 09:00:08;;;;;;;11.63;2.70;;;15.70;67.60;;;;;;4125025;28;20050;-69
2022/01/21 09:02:55;;;;;;;15.50;2.80;;;15.80;67.30;;;;;;4126718;28;20116;-69
2022/01/21 09:05:23;;;;;;;12.50;3.53;;;15.90;66.30;;;;;;4128238;28;20072;-71
2022/01/21 09:07:48;;;;;;;12.15;2.72;;;15.90;65.80;;;;;;4124471;28;20447;-70
2022/01/21 09:10:22;;;;;;;12.82;2.58;;;15.90;65.60;;;;;;4126401;28;20457;-71
2022/01/21 09:12:51;;;;;;;12.15;2.35;;;15.90;65.40;;;;;;4125374;28;20046;-71
2022/01/21 09:15:25;;;;;;;17.13;3.53;;;15.90;65.40;;;;;;4128784;28;20064;-70
2022/01/21 09:17:55;;;;;;;16.70;2.75;;;15.80;65.40;;;;;;4141480;28;20054;-70
2022/01/21 09:20:18;;;;;;;11.18;2.08;;;15.80;65.40;;;;;;4142168;28;20077;-71
2022/01/21 09:22:45;;;;;;;12.75;2.65;;;15.70;65.40;;;;;;4143066;28;20116;-72
2022/01/21 09:25:09;;;;;;;16.83;2.83;;;15.70;65.60;;;;;;4143439;28;20432;-72
2022/01/21 09:27:36;;;;;;;12.35;2.35;;;15.70;65.80;;;;;;4129048;28;20097;-71
2022/01/21 09:30:01;;;;;;;13.52;2.55;;;15.60;65.70;;;;;;4128831;28;20112;-70
2022/01/21 09:32:24;;;;;;;15.25;2.75;;;15.50;65.90;;;;;;4136589;28;20041;-71
2022/01/21 09:34:49;;;;;;;22.35;3.05;;;15.50;66.10;;;;;;4145182;28;20425;-70
2022/01/21 09:37:12;;;;;;;14.57;2.95;;;15.40;66.40;;;;;;4144912;28;20456;-70
2022/01/21 09:39:35;;;;;;;14.35;2.85;;;15.40;66.50;;;;;;4143864;28;20079;-70
2022/01/21 09:42:01;;;;;;;13.60;2.50;;;15.40;66.50;;;;;;4138949;28;20050;-70
2022/01/21 09:44:24;;;;;;;14.07;2.83;;;15.40;66.40;;;;;;4142548;28;20038;-71
2022/01/21 09:46:50;;;;;;;15.45;2.42;;;15.30;66.50;;;;;;4144134;28;20049;-71
2022/01/21 09:49:29;;;;;;;10.98;2.40;;;15.40;66.50;;;;;;4142966;28;20092;-70
2022/01/21 09:51:55;;;;;;;15.27;2.75;;;15.40;66.40;;;;;;4134777;28;20077;-72
2022/01/21 09:54:18;;;;;;;16.00;2.67;;;15.50;66.20;;;;;;4128343;28;20086;-74
2022/01/21 09:56:45;;;;;;;16.13;3.35;;;15.60;65.70;;;;;;4127211;28;20046;-73
2022/01/21 09:59:08;;;;;;;12.05;2.03;;;15.70;65.20;;;;;;4128147;28;20050;-70
2022/01/21 10:01:33;;;;;;;9.57;2.40;;;15.80;64.80;;;;;;4135209;28;20050;-72
2022/01/21 10:03:57;;;;;;;11.68;2.35;;;15.90;64.60;;;;;;4144491;28;20057;-71
2022/01/21 10:06:24;;;;;;;9.77;2.00;;;15.90;64.50;;;;;;4144776;28;20054;-71
2022/01/21 10:08:51;;;;;;;12.50;2.60;;;15.90;65.40;;;;;;4143255;28;20099;-71
2022/01/21 10:11:15;;;;;;;10.02;1.85;;;15.90;64.40;;;;;;4136486;28;20093;-72
2022/01/21 10:13:38;;;;;;;14.63;3.05;;;16.00;64.30;;;;;;4128489;28;20096;-72
2022/01/21 10:16:03;;;;;;;15.35;2.33;;;16.00;64.10;;;;;;4128382;28;20453;-71
2022/01/21 10:18:28;;;;;;;11.77;2.22;;;16.00;64.00;;;;;;4128427;28;20529;-73
2022/01/21 10:21:04;;;;;;;13.43;2.55;;;16.00;64.00;;;;;;4131001;28;20041;-67
2022/01/21 10:23:28;;;;;;;9.27;2.17;;;16.00;63.80;;;;;;4143782;28;20054;-68
2022/01/21 10:26:00;;;;;;;14.68;2.42;;;16.10;63.80;;;;;;4144157;28;20046;-67
2022/01/21 10:28:24;;;;;;;7.95;1.80;;;16.10;63.90;;;;;;4144330;28;20050;-68
2022/01/21 10:30:48;;;;;;;13.50;2.40;;;16.00;63.90;;;;;;4141913;28;21533;-67
2022/01/21 10:33:19;;;;;;;8.57;2.00;;;16.00;64.00;;;;;;4128401;28;20054;-72
2022/01/21 10:35:46;;;;;;;9.98;2.47;;;16.00;64.00;;;;;;4127130;28;20038;-71
2022/01/21 10:38:16;;;;;;;9.63;2.10;;;16.00;64.10;;;;;;4131037;28;20042;-71
2022/01/21 10:40:39;;;;;;;8.95;2.13;;;15.90;64.20;;;;;;4138887;28;20548;-72
2022/01/21 10:43:13;;;;;;;10.30;2.05;;;15.90;64.40;;;;;;4134705;28;20359;-71
2022/01/21 10:45:48;;;;;;;9.90;1.90;;;15.90;65.40;;;;;;4144484;28;20452;-71
2022/01/21 10:48:11;;;;;;;9.98;2.17;;;16.00;64.40;;;;;;4141793;28;20058;-72
2022/01/21 10:50:35;;;;;;;8.45;1.90;;;16.10;63.90;;;;;;4142747;28;20104;-68
2022/01/21 10:52:58;;;;;;;12.52;2.28;;;16.20;63.60;;;;;;4127691;28;20046;-71
2022/01/21 10:55:29;;;;;;;9.55;2.30;;;16.30;64.20;;;;;;4131627;28;20100;-69
2022/01/21 10:58:04;;;;;;;7.28;2.33;;;16.30;65.00;;;;;;4137410;28;20093;-69
2022/01/21 11:00:29;;;;;;;11.25;1.88;;;16.30;64.10;;;;;;4142757;28;20509;-69
2022/01/21 11:02:54;;;;;;;8.57;2.17;;;16.30;64.20;;;;;;4127627;28;20104;-70
2022/01/21 11:05:29;;;;;;;5.10;1.90;;;16.30;64.10;;;;;;4129226;28;20073;-69
2022/01/21 11:08:00;;;;;;;11.13;2.15;;;16.30;63.90;;;;;;4136674;28;20486;-70
2022/01/21 11:10:46;;;;;;;13.20;2.40;;;16.30;63.70;;;;;;4137514;28;20053;-70
2022/01/21 11:13:29;;;;;;;9.55;2.28;;;16.30;63.70;;;;;;4143229;28;20045;-69
2022/01/21 11:15:56;;;;;;;11.98;2.30;;;16.30;63.80;;;;;;4130134;28;20482;-70
2022/01/21 11:19:07;;;;;;;11.90;2.45;;;16.20;64.00;;;;;;4132043;28;20050;-68
2022/01/21 11:21:51;;;;;;;11.48;2.78;;;16.20;64.10;;;;;;4142909;28;20108;-71
2022/01/21 11:24:17;;;;;;;10.40;2.22;;;16.20;64.10;;;;;;4126379;28;20432;-70
2022/01/21 11:26:40;;;;;;;15.88;2.45;;;16.20;64.10;;;;;;4125426;28;20160;-69
2022/01/21 11:29:06;;;;;;;17.30;2.90;;;16.10;64.20;;;;;;4127680;28;20046;-70
2022/01/21 11:31:31;;;;;;;10.27;2.10;;;16.10;64.30;;;;;;4134105;28;20541;-70
2022/01/21 11:34:04;;;;;;;12.85;2.28;;;16.00;64.50;;;;;;4142230;28;20099;-70
2022/01/21 11:36:28;;;;;;;10.55;2.08;;;16.00;64.90;;;;;;4127143;28;20102;-71
2022/01/21 11:38:55;;;;;;;12.30;1.90;;;15.90;65.10;;;;;;4127050;28;20051;-71
2022/01/21 11:41:19;;;;;;;9.30;1.70;;;15.90;65.40;;;;;;4126588;28;20096;-70
2022/01/21 11:43:49;;;;;;;7.68;2.22;;;16.00;65.50;;;;;;4127011;28;20050;-71
2022/01/21 11:48:59;;;;;;;11.57;1.85;;;16.10;64.80;;;;;;4124945;28;20046;-72
2022/01/21 11:51:27;;;;;;;7.07;2.00;;;16.10;64.80;;;;;;4140237;28;20414;-72
2022/01/21 11:53:52;;;;;;;11.05;2.50;;;16.10;65.00;;;;;;4124990;28;20482;-70
2022/01/21 11:56:34;;;;;;;11.52;1.90;;;16.00;65.00;;;;;;4139815;28;20476;-72
2022/01/21 11:59:06;;;;;;;14.88;2.10;;;15.90;65.20;;;;;;4138330;28;20486;-71
2022/01/21 12:01:35;;;;;;;6.90;1.70;;;15.90;65.40;;;;;;4140335;28;20045;-71
2022/01/21 12:04:03;;;;;;;9.05;1.65;;;15.80;65.60;;;;;;4140562;28;20054;-72
2022/01/21 12:06:34;;;;;;;12.15;1.80;;;15.80;66.00;;;;;;4138047;28;20109;-71
2022/01/21 12:09:08;;;;;;;9.07;1.83;;;15.70;66.10;;;;;;4212086;27;20399;-70
2022/01/21 12:11:37;;;;;;;7.45;1.70;;;15.70;66.60;;;;;;4203589;28;20051;-69
2022/01/21 12:14:01;;;;;;;7.72;2.00;;;15.60;66.70;;;;;;4203445;28;20487;-66
2022/01/21 12:16:50;;;;;;;8.07;2.10;;;15.60;67.50;;;;;;4203651;28;20079;-67
2022/01/21 12:21:54;;;;;;;12.98;1.90;;;15.70;66.70;;;;;;4203871;28;20044;-67
2022/01/21 12:24:45;;;;;;;13.90;2.22;;;15.60;66.60;;;;;;4204448;28;20129;-67
2022/01/21 12:27:09;;;;;;;13.50;2.97;;;15.60;66.50;;;;;;4203790;28;20048;-71
2022/01/21 12:29:31;;;;;;;6.88;2.10;;;15.60;66.60;;;;;;4203966;28;20490;-71
2022/01/21 12:32:01;;;;;;;9.27;1.63;;;15.50;66.90;;;;;;4203652;28;20154;-72
2022/01/21 12:34:23;;;;;;;7.30;2.00;;;15.50;67.10;;;;;;4203852;28;22241;-72
2022/01/21 12:36:49;;;;;;;5.35;1.48;;;15.40;67.30;;;;;;4202921;28;20047;-71
2022/01/21 12:39:41;;;;;;;16.38;4.93;;;15.40;67.70;;;;;;4202899;28;20052;-70
2022/01/21 12:42:24;;;;;;;11.57;4.45;;;15.40;67.50;;;;;;4203459;28;20106;-70
2022/01/21 12:44:47;;;;;;;7.22;2.17;;;15.50;67.40;;;;;;4204118;28;20047;-70
2022/01/21 12:47:31;;;;;;;11.95;2.88;;;15.60;67.10;;;;;;4203193;28;20051;-70
2022/01/21 12:49:56;;;;;;;14.55;4.32;;;15.50;66.80;;;;;;4203342;28;20040;-71
2022/01/21 12:52:48;;;;;;;8.57;2.50;;;15.60;66.80;;;;;;4203710;28;20043;-70
2022/01/21 12:58:04;;;;;;;7.25;2.13;;;15.50;67.10;;;;;;4186352;28;20044;-72
2022/01/21 13:00:26;;;;;;;10.68;2.13;;;15.50;67.30;;;;;;4186030;28;20128;-76
2022/01/21 13:02:51;;;;;;;6.60;1.40;;;15.40;67.50;;;;;;4186927;28;20048;-72
2022/01/21 13:05:17;;;;;;;11.70;1.90;;;15.40;67.60;;;;;;4184466;28;20056;-73
2022/01/21 13:07:52;;;;;;;12.15;2.13;;;15.30;67.60;;;;;;4186232;28;20067;-73
2022/01/21 13:10:23;;;;;;;7.35;1.55;;;15.40;67.60;;;;;;4186373;28;20548;-73
2022/01/21 13:12:59;;;;;;;7.35;1.83;;;15.40;68.70;;;;;;4185411;28;20083;-73
2022/01/21 13:15:22;;;;;;;9.40;1.67;;;15.30;68.00;;;;;;4185838;28;20502;-73
2022/01/21 13:17:57;;;;;;;10.13;2.03;;;15.30;68.10;;;;;;4186652;28;20122;-73
2022/01/21 13:20:29;;;;;;;9.85;2.05;;;15.30;68.40;;;;;;4176138;28;20523;-72
2022/01/21 13:22:51;;;;;;;14.13;3.35;;;15.30;68.50;;;;;;4174992;28;20037;-73
2022/01/21 13:25:16;;;;;;;11.57;2.35;;;15.40;68.30;;;;;;4174888;28;20052;-72
2022/01/21 13:27:46;;;;;;;12.38;2.70;;;15.50;67.90;;;;;;4175168;28;20102;-72
2022/01/21 13:30:11;;;;;;;9.43;3.00;;;15.60;67.40;;;;;;4175494;28;20045;-72
2022/01/21 13:32:32;;;;;;;13.30;2.53;;;15.60;67.20;;;;;;4175708;28;20047;-72
2022/01/21 13:35:09;;;;;;;8.98;1.77;;;15.60;67.00;;;;;;4175160;28;20131;-73